Bramble, Indiana
Current Conditions -  °F | °C
As of 6:15 AM on Friday 31 Oct 2014 (Local Time) from KDCY Reporting Station
Overcast Overcast  
Wind Chill: 42°   Ceiling: 4100
Heat Index: 46°   Visibility: 7mi
Dew Point: 46°   Wind: 6mph
Humidity: 100%   Direction: 300°WNW
Pressure: 30.03"   Gusts: NA
Location:  38.6074°N, 86.9234°W
Report Text: KDCY 311115Z AUTO 30005KT 7SM OVC041 08/08 A3003 RMK AO2 T00750075
Loading
Personal Weather Stations






























Interactive Weather Map
Tropical Storm Tracking
New forecast layout! Learn more

10-Day Weather Forecast

Advertisements
Track Severe Weather on mobile